createdAt,value
2022-09-16T00:00:51.356Z,77.65
2022-09-16T00:03:19.373Z,78.62
2022-09-16T00:05:50.099Z,79.55
2022-09-16T00:08:18.392Z,75.67
2022-09-16T00:10:46.293Z,75.84
2022-09-16T00:13:14.188Z,75.56
2022-09-16T00:15:45.718Z,76.18
2022-09-16T00:18:14.765Z,76.64
2022-09-16T00:20:50.007Z,74.64
2022-09-16T00:23:18.357Z,77.02
2022-09-16T00:25:50.645Z,76.35
2022-09-16T00:28:19.048Z,76.23
2022-09-16T00:30:46.363Z,75.02
2022-09-16T00:33:13.781Z,74.33
2022-09-16T00:35:41.418Z,74.06
2022-09-16T00:38:08.789Z,74.62
2022-09-16T00:40:47.023Z,75.40
2022-09-16T00:43:19.452Z,74.33
2022-09-16T00:45:50.863Z,75.16
2022-09-16T00:48:23.208Z,77.07
2022-09-16T00:50:54.180Z,75.10
2022-09-16T00:53:30.060Z,74.09
2022-09-16T00:56:01.240Z,78.57
2022-09-16T00:58:49.079Z,77.89
2022-09-16T01:01:16.515Z,76.22
2022-09-16T01:03:51.443Z,77.69
2022-09-16T01:06:18.802Z,77.86
2022-09-16T01:08:46.587Z,79.06
2022-09-16T01:11:13.918Z,80.02
2022-09-16T01:13:42.942Z,79.67
2022-09-16T01:16:33.513Z,77.39
2022-09-16T01:19:09.313Z,76.09
2022-09-16T01:21:44.300Z,76.91
2022-09-16T01:24:36.504Z,77.88
2022-09-16T01:27:10.525Z,78.46
2022-09-16T01:30:06.915Z,76.59
2022-09-16T01:32:52.700Z,78.58
2022-09-16T01:35:56.081Z,75.55
2022-09-16T01:38:46.118Z,76.38
2022-09-16T01:41:23.974Z,74.79
2022-09-16T01:44:03.324Z,76.04
2022-09-16T01:46:45.704Z,76.46
2022-09-16T01:49:22.650Z,78.09
2022-09-16T01:52:05.188Z,76.26
2022-09-16T01:54:44.383Z,78.42
2022-09-16T01:57:26.567Z,79.29
2022-09-16T02:00:03.842Z,77.21
2022-09-16T02:02:37.879Z,80.66
2022-09-16T02:05:09.885Z,77.51
2022-09-16T02:07:40.431Z,78.01
2022-09-16T02:10:17.996Z,76.74
2022-09-16T02:12:46.386Z,76.31
2022-09-16T02:15:18.880Z,76.87
2022-09-16T02:17:51.120Z,75.97
2022-09-16T02:20:25.044Z,74.24
2022-09-16T02:22:57.907Z,75.24
2022-09-16T02:25:26.382Z,76.01
2022-09-16T02:27:54.151Z,75.59
2022-09-16T02:30:23.153Z,75.30
2022-09-16T02:33:04.299Z,75.63
2022-09-16T02:35:34.503Z,74.77
2022-09-16T02:38:06.447Z,74.33
2022-09-16T02:40:42.981Z,74.48
2022-09-16T02:43:10.584Z,73.62
2022-09-16T02:45:45.755Z,72.61
2022-09-16T02:48:21.092Z,74.06
2022-09-16T02:51:00.008Z,74.59
2022-09-16T02:53:46.725Z,75.36
2022-09-16T02:56:41.182Z,76.14
2022-09-16T02:59:10.937Z,73.87
2022-09-16T03:01:41.455Z,77.00
2022-09-16T03:04:11.029Z,76.54
2022-09-16T03:06:39.314Z,75.86
2022-09-16T03:09:09.733Z,78.97
2022-09-16T03:11:54.211Z,78.49
2022-09-16T03:14:42.682Z,75.95
2022-09-16T03:17:25.509Z,77.17
2022-09-16T03:20:12.121Z,77.94
2022-09-16T03:23:18.132Z,75.73
2022-09-16T03:25:48.314Z,75.96
2022-09-16T03:28:24.157Z,76.95
2022-09-16T03:31:05.414Z,76.38
2022-09-16T03:33:41.419Z,74.09
2022-09-16T03:36:12.176Z,75.44
2022-09-16T03:38:41.394Z,75.18
2022-09-16T03:41:09.579Z,75.80
2022-09-16T03:43:36.930Z,75.03
2022-09-16T03:46:11.016Z,73.89
2022-09-16T03:48:38.369Z,73.46
2022-09-16T03:51:05.939Z,74.22
2022-09-16T03:53:33.261Z,73.20
2022-09-16T03:56:00.570Z,75.94
2022-09-16T03:58:28.149Z,74.81
2022-09-16T04:00:55.441Z,73.38
2022-09-16T04:03:23.007Z,73.01
2022-09-16T04:05:59.177Z,72.43
2022-09-16T04:08:26.776Z,73.43
2022-09-16T04:10:58.473Z,71.75
2022-09-16T04:13:26.373Z,73.34
2022-09-16T04:15:54.002Z,73.84
2022-09-16T04:18:21.353Z,73.37
2022-09-16T04:20:48.698Z,72.06
2022-09-16T04:23:16.309Z,73.45
2022-09-16T04:25:43.711Z,72.71
2022-09-16T04:28:11.344Z,73.84
2022-09-16T04:30:39.036Z,74.17
2022-09-16T04:33:06.427Z,73.44
2022-09-16T04:35:34.167Z,72.44
2022-09-16T04:38:01.805Z,73.49
2022-09-16T04:40:29.185Z,73.55
2022-09-16T04:42:56.662Z,73.13
2022-09-16T04:45:24.484Z,72.74
2022-09-16T04:47:58.604Z,72.51
2022-09-16T04:50:26.224Z,74.35
2022-09-16T04:52:53.721Z,73.80
2022-09-16T04:55:23.199Z,73.00
2022-09-16T04:57:50.852Z,73.45
2022-09-16T05:00:18.354Z,73.94
2022-09-16T05:02:46.107Z,74.29
2022-09-16T05:05:17.281Z,74.29
2022-09-16T05:07:44.790Z,74.96
2022-09-16T05:10:12.341Z,72.43
2022-09-16T05:12:39.928Z,72.93
2022-09-16T05:15:07.855Z,72.30
2022-09-16T05:17:50.381Z,74.31
2022-09-16T05:20:19.422Z,73.22
2022-09-16T05:22:49.890Z,73.03
2022-09-16T05:25:17.616Z,72.34
2022-09-16T05:27:45.891Z,71.93
2022-09-16T05:30:15.195Z,72.78
2022-09-16T05:32:42.573Z,75.15
2022-09-16T05:35:10.567Z,74.54
2022-09-16T05:37:37.905Z,74.32
2022-09-16T05:40:16.602Z,72.73
2022-09-16T05:42:44.267Z,74.08
2022-09-16T05:45:11.619Z,74.83
2022-09-16T05:47:39.181Z,73.63
2022-09-16T05:50:07.414Z,71.90
2022-09-16T05:52:34.765Z,69.52
2022-09-16T05:55:02.101Z,74.50
2022-09-16T05:57:29.722Z,73.60
2022-09-16T05:59:57.079Z,74.67
2022-09-16T06:02:24.937Z,72.42
2022-09-16T06:04:53.258Z,71.42
2022-09-16T06:07:20.669Z,69.35
2022-09-16T06:09:48.029Z,70.42
2022-09-16T06:12:16.020Z,71.12
2022-09-16T06:14:43.351Z,71.09
2022-09-16T06:17:10.684Z,69.37
2022-09-16T06:19:38.280Z,69.54
2022-09-16T06:22:05.750Z,71.66
2022-09-16T06:24:33.072Z,68.30
2022-09-16T06:27:00.711Z,70.45
2022-09-16T06:29:28.042Z,73.63
2022-09-16T06:31:55.362Z,72.82
2022-09-16T06:34:22.956Z,71.31
2022-09-16T06:36:50.361Z,73.16
2022-09-16T06:39:17.751Z,72.44
2022-09-16T06:41:46.003Z,70.28
2022-09-16T06:44:13.381Z,69.30
2022-09-16T06:46:41.079Z,70.18
2022-09-16T06:49:11.047Z,71.88
2022-09-16T06:51:38.755Z,71.61
2022-09-16T06:54:07.724Z,70.37
2022-09-16T06:56:39.787Z,69.56
2022-09-16T06:59:07.452Z,69.78
2022-09-16T07:01:35.260Z,71.42
2022-09-16T07:04:05.563Z,71.83
2022-09-16T07:07:04.938Z,70.36
2022-09-16T07:09:22.273Z,69.18
2022-09-16T07:11:49.627Z,69.71
2022-09-16T07:14:16.970Z,67.68
2022-09-16T07:16:44.677Z,66.61
2022-09-16T07:19:12.016Z,66.54
2022-09-16T07:21:41.340Z,67.98
2022-09-16T07:24:11.833Z,69.12
2022-09-16T07:26:40.495Z,71.35
2022-09-16T07:29:13.634Z,70.81
2022-09-16T07:31:41.858Z,71.68
2022-09-16T07:34:10.957Z,72.49
2022-09-16T07:36:40.773Z,71.86
2022-09-16T07:39:09.394Z,67.56
2022-09-16T07:41:39.030Z,69.62
2022-09-16T07:44:07.613Z,70.17
2022-09-16T07:46:36.453Z,69.83
2022-09-16T07:49:05.522Z,70.00
2022-09-16T07:51:33.444Z,71.36
2022-09-16T07:54:04.687Z,71.21
2022-09-16T07:56:34.485Z,69.51
2022-09-16T07:59:04.259Z,73.81
2022-09-16T08:01:31.909Z,73.24
2022-09-16T08:04:00.532Z,74.21
2022-09-16T08:06:29.898Z,71.06
2022-09-16T08:09:09.796Z,72.76
2022-09-16T08:11:43.058Z,72.80
2022-09-16T08:14:10.405Z,72.04
2022-09-16T08:16:38.055Z,74.10
2022-09-16T08:19:05.708Z,74.20
2022-09-16T08:21:33.452Z,72.67
2022-09-16T08:24:00.929Z,73.38
2022-09-16T08:26:29.673Z,74.10
2022-09-16T08:29:08.370Z,72.92
2022-09-16T08:31:36.965Z,72.03
2022-09-16T08:34:04.948Z,70.91
2022-09-16T08:36:35.378Z,72.33
2022-09-16T08:39:03.098Z,72.19
2022-09-16T08:41:39.834Z,69.33
2022-09-16T08:44:15.962Z,69.46
2022-09-16T08:46:55.506Z,67.38
2022-09-16T08:49:32.372Z,70.61
2022-09-16T08:52:02.002Z,71.83
2022-09-16T08:54:48.142Z,71.64
2022-09-16T08:57:21.643Z,70.20
2022-09-16T08:59:58.748Z,69.36
2022-09-16T09:05:31.563Z,68.10
2022-09-16T09:08:07.619Z,68.31
2022-09-16T09:11:13.562Z,67.44
2022-09-16T09:13:59.761Z,65.67
2022-09-16T09:17:24.706Z,65.88
2022-09-16T09:19:52.148Z,64.79
2022-09-16T09:22:51.615Z,65.84
2022-09-16T09:25:28.859Z,68.34
2022-09-16T09:28:23.466Z,68.84
2022-09-16T09:31:10.582Z,68.53
2022-09-16T09:33:47.799Z,68.89
2022-09-16T09:36:40.485Z,66.98
2022-09-16T09:39:17.046Z,67.90
2022-09-16T09:41:53.803Z,67.97
2022-09-16T09:44:39.866Z,71.17
2022-09-16T09:47:20.189Z,73.60
2022-09-16T09:49:51.122Z,73.22
2022-09-16T09:52:23.526Z,72.52
2022-09-16T09:54:51.653Z,71.74
2022-09-16T09:57:27.686Z,70.08
2022-09-16T10:00:00.557Z,70.16
2022-09-16T10:02:28.298Z,67.97
2022-09-16T10:04:56.321Z,63.28
2022-09-16T10:07:24.981Z,60.80
2022-09-16T10:09:55.639Z,60.23
2022-09-16T10:12:36.055Z,58.78
2022-09-16T10:15:03.676Z,63.46
2022-09-16T10:17:32.539Z,63.90
2022-09-16T10:20:06.726Z,60.41
2022-09-16T10:22:35.307Z,60.69
2022-09-16T10:25:08.085Z,54.51
2022-09-16T10:27:37.777Z,55.32
2022-09-16T10:30:08.446Z,58.37
2022-09-16T10:33:06.149Z,58.53
2022-09-16T10:35:39.006Z,58.76
2022-09-16T10:38:09.768Z,58.60
2022-09-16T10:40:37.478Z,55.91
2022-09-16T10:43:07.899Z,56.77
2022-09-16T10:45:46.092Z,59.13
2022-09-16T10:48:16.223Z,59.38
2022-09-16T10:51:05.334Z,58.39
2022-09-16T10:53:41.001Z,58.56
2022-09-16T10:56:20.371Z,57.89
2022-09-16T10:58:47.908Z,58.95
2022-09-16T11:01:25.263Z,55.06
2022-09-16T11:04:08.202Z,54.11
2022-09-16T11:07:00.242Z,54.12
2022-09-16T11:09:39.938Z,56.05
2022-09-16T11:12:13.449Z,56.54
2022-09-16T11:15:28.332Z,57.08
2022-09-16T11:18:33.401Z,51.66
2022-09-16T11:21:15.209Z,53.35
2022-09-16T11:23:58.820Z,55.43
2022-09-16T11:26:38.602Z,55.32
2022-09-16T11:29:34.557Z,56.75
2022-09-16T11:32:10.954Z,54.51
2022-09-16T11:35:17.681Z,58.39
2022-09-16T11:38:16.591Z,59.11
2022-09-16T11:40:50.859Z,58.43
2022-09-16T11:43:27.412Z,56.77
2022-09-16T11:45:59.547Z,55.23
2022-09-16T11:48:38.799Z,55.67
2022-09-16T11:51:33.269Z,53.21
2022-09-16T11:56:56.903Z,54.52
2022-09-16T11:59:29.590Z,52.94
2022-09-16T12:02:26.587Z,54.67
2022-09-16T12:05:13.259Z,54.81
2022-09-16T12:08:09.323Z,53.04
2022-09-16T12:10:49.902Z,52.70
2022-09-16T12:13:22.253Z,50.61
2022-09-16T12:15:53.422Z,53.24
2022-09-16T12:18:43.010Z,54.11
2022-09-16T12:21:24.361Z,50.75
2022-09-16T12:23:57.674Z,48.69
2022-09-16T12:26:27.206Z,49.51
2022-09-16T12:29:02.013Z,50.43
2022-09-16T12:31:37.773Z,50.02
2022-09-16T12:34:11.433Z,48.92
2022-09-16T12:36:41.652Z,49.72
2022-09-16T12:39:10.739Z,54.53
2022-09-16T12:41:51.734Z,51.79
2022-09-16T12:44:50.483Z,50.99
2022-09-16T12:47:42.474Z,52.96
2022-09-16T12:50:36.243Z,50.96
2022-09-16T12:53:33.130Z,50.68
2022-09-16T12:56:19.307Z,50.62
2022-09-16T12:59:23.645Z,52.06
2022-09-16T13:01:59.786Z,51.70
2022-09-16T13:04:32.407Z,50.55
2022-09-16T13:07:01.385Z,53.16
2022-09-16T13:09:39.656Z,53.10
2022-09-16T13:12:39.138Z,50.10
2022-09-16T13:15:09.661Z,49.65
2022-09-16T13:17:39.723Z,50.42
2022-09-16T13:20:21.580Z,51.19
2022-09-16T13:22:56.854Z,50.93
2022-09-16T13:25:28.665Z,51.36
2022-09-16T13:28:01.647Z,51.65
2022-09-16T13:30:37.993Z,54.07
2022-09-16T13:33:11.583Z,54.77
2022-09-16T13:35:43.747Z,55.00
2022-09-16T13:38:14.389Z,54.49
2022-09-16T13:40:55.259Z,55.75
2022-09-16T13:43:42.009Z,56.43
2022-09-16T13:46:16.821Z,55.58
2022-09-16T13:48:51.921Z,55.02
2022-09-16T13:51:21.445Z,56.36
2022-09-16T13:53:51.568Z,56.64
2022-09-16T13:56:39.459Z,57.03
2022-09-16T13:59:37.257Z,56.54
2022-09-16T14:02:50.295Z,57.17
2022-09-16T14:05:53.221Z,56.05
2022-09-16T14:08:32.451Z,56.63
2022-09-16T14:10:59.919Z,57.14
2022-09-16T14:13:41.824Z,56.08
2022-09-16T14:16:25.298Z,56.65
2022-09-16T14:19:02.605Z,57.08
2022-09-16T14:21:30.523Z,58.39
2022-09-16T14:24:33.434Z,57.63
2022-09-16T14:27:01.059Z,57.46
2022-09-16T14:29:28.400Z,58.17
2022-09-16T14:31:56.948Z,56.76
2022-09-16T14:34:34.812Z,57.10
2022-09-16T14:37:02.347Z,57.85
2022-09-16T14:39:30.565Z,57.69
2022-09-16T14:42:02.726Z,55.77
2022-09-16T14:44:39.718Z,55.92
2022-09-16T14:47:28.342Z,57.51
2022-09-16T14:50:05.126Z,57.27
2022-09-16T14:52:35.599Z,56.84
2022-09-16T14:55:09.675Z,58.25
2022-09-16T14:57:37.033Z,58.55
2022-09-16T15:00:11.683Z,56.36
2022-09-16T15:02:51.178Z,57.48
2022-09-16T15:05:27.858Z,57.00
2022-09-16T15:08:14.667Z,57.88
2022-09-16T15:10:53.701Z,57.20
2022-09-16T15:13:24.765Z,57.17
2022-09-16T15:15:59.206Z,57.05
2022-09-16T15:18:28.717Z,56.84
2022-09-16T15:21:26.267Z,57.41
2022-09-16T15:23:56.992Z,56.13
2022-09-16T15:26:29.070Z,57.96
2022-09-16T15:29:02.171Z,58.41
2022-09-16T15:31:40.927Z,57.96
2022-09-16T15:34:23.421Z,57.35
2022-09-16T15:36:56.842Z,57.83
2022-09-16T15:39:26.616Z,57.77
2022-09-16T15:42:20.507Z,57.53
2022-09-16T15:44:50.326Z,59.05
2022-09-16T15:47:25.199Z,57.35
2022-09-16T15:49:58.633Z,58.70
2022-09-16T15:52:27.452Z,58.02
2022-09-16T15:55:00.988Z,57.97
2022-09-16T15:57:43.430Z,59.00
2022-09-16T16:00:13.573Z,62.32
2022-09-16T16:03:00.597Z,59.73
2022-09-16T16:05:31.154Z,58.79
2022-09-16T16:08:03.142Z,58.83
2022-09-16T16:10:35.190Z,58.91
2022-09-16T16:13:04.680Z,59.53
2022-09-16T16:15:37.040Z,59.70
2022-09-16T16:18:06.961Z,59.63
2022-09-16T16:20:36.445Z,60.54
2022-09-16T16:23:04.150Z,60.82
2022-09-16T16:25:32.278Z,59.62
2022-09-16T16:27:59.653Z,60.71
2022-09-16T16:30:27.007Z,61.17
2022-09-16T16:32:54.634Z,61.27
2022-09-16T16:35:21.959Z,60.39
2022-09-16T16:37:49.285Z,60.28
2022-09-16T16:40:17.047Z,61.85
2022-09-16T16:42:44.580Z,62.47
2022-09-16T16:45:13.444Z,63.58
2022-09-16T16:47:42.101Z,61.90
2022-09-16T16:50:10.523Z,62.39
2022-09-16T16:52:37.912Z,61.55
2022-09-16T16:55:06.778Z,61.95
2022-09-16T16:57:34.127Z,59.12
2022-09-16T17:00:01.584Z,58.87
2022-09-16T17:02:29.885Z,59.00
2022-09-16T17:04:57.299Z,58.45
2022-09-16T17:07:26.730Z,59.87
2022-09-16T17:09:57.394Z,59.90
2022-09-16T17:12:25.756Z,60.44
2022-09-16T17:14:53.120Z,59.45
2022-09-16T17:17:26.539Z,58.14
2022-09-16T17:19:57.940Z,60.35
2022-09-16T17:22:25.534Z,60.88
2022-09-16T17:24:52.875Z,61.01
2022-09-16T17:27:21.891Z,62.25
2022-09-16T17:29:49.502Z,62.25
2022-09-16T17:32:16.843Z,62.75
2022-09-16T17:34:44.180Z,62.48
2022-09-16T17:37:13.605Z,61.42
2022-09-16T17:39:41.464Z,61.73
2022-09-16T17:42:08.818Z,61.13
2022-09-16T17:44:36.426Z,61.62
2022-09-16T17:47:03.800Z,63.00
2022-09-16T17:49:31.216Z,62.70
2022-09-16T17:51:58.908Z,62.28
2022-09-16T17:54:26.299Z,61.22
2022-09-16T17:56:53.727Z,59.50
2022-09-16T17:59:21.391Z,60.84
2022-09-16T18:01:49.174Z,61.36
2022-09-16T18:04:16.824Z,61.17
2022-09-16T18:06:46.218Z,60.22
2022-09-16T18:09:14.047Z,59.94
2022-09-16T18:11:41.724Z,60.02
2022-09-16T18:14:11.662Z,59.72
2022-09-16T18:16:39.641Z,60.57
2022-09-16T18:19:07.649Z,60.28
2022-09-16T18:21:36.834Z,60.42
2022-09-16T18:24:05.412Z,61.97
2022-09-16T18:26:33.047Z,61.87
2022-09-16T18:29:17.971Z,62.96
2022-09-16T18:31:47.362Z,62.42
2022-09-16T18:34:16.020Z,62.99
2022-09-16T18:36:43.774Z,62.88
2022-09-16T18:39:14.643Z,63.02
2022-09-16T18:41:43.345Z,63.48
2022-09-16T18:44:16.917Z,63.03
2022-09-16T18:46:44.398Z,62.08
2022-09-16T18:49:13.500Z,61.66
2022-09-16T18:51:47.286Z,61.22
2022-09-16T18:54:20.306Z,60.59
2022-09-16T18:56:47.644Z,60.11
2022-09-16T18:59:21.595Z,59.41
2022-09-16T19:01:52.222Z,61.89
2022-09-16T19:04:22.058Z,60.17
2022-09-16T19:06:51.538Z,60.02
2022-09-16T19:09:21.538Z,59.90
2022-09-16T19:11:49.577Z,60.63
2022-09-16T19:14:17.327Z,61.79
2022-09-16T19:16:45.577Z,62.15
2022-09-16T19:19:14.923Z,63.36
2022-09-16T19:21:43.351Z,64.38
2022-09-16T19:24:18.818Z,61.42
2022-09-16T19:26:47.594Z,62.11
2022-09-16T19:29:16.031Z,61.94
2022-09-16T19:31:44.908Z,61.53
2022-09-16T19:34:13.960Z,62.14
2022-09-16T19:36:41.988Z,63.24
2022-09-16T19:39:10.742Z,62.72
2022-09-16T19:41:39.970Z,62.48
2022-09-16T19:44:10.912Z,61.85
2022-09-16T19:46:39.504Z,63.05
2022-09-16T19:49:08.349Z,62.71
2022-09-16T19:51:35.897Z,61.55
2022-09-16T19:54:03.909Z,60.02
2022-09-16T19:56:32.955Z,61.07
2022-09-16T19:59:01.619Z,61.61
2022-09-16T20:01:32.250Z,61.44
2022-09-16T20:04:01.541Z,61.00
2022-09-16T20:06:32.757Z,61.94
2022-09-16T20:09:01.804Z,62.36
2022-09-16T20:11:33.918Z,62.31
2022-09-16T20:14:04.081Z,62.46
2022-09-16T20:16:37.552Z,63.31
2022-09-16T20:19:07.002Z,63.72
2022-09-16T20:21:35.751Z,63.80
2022-09-16T20:24:08.050Z,65.70
2022-09-16T20:26:35.953Z,65.95
2022-09-16T20:29:03.949Z,64.99
2022-09-16T20:31:34.564Z,64.27
2022-09-16T20:34:02.981Z,64.69
2022-09-16T20:36:31.721Z,64.78
2022-09-16T20:38:59.885Z,63.92
2022-09-16T20:41:29.964Z,62.98
2022-09-16T20:43:57.675Z,63.07
2022-09-16T20:46:31.550Z,63.37
2022-09-16T20:49:01.698Z,63.90
2022-09-16T20:51:33.523Z,64.41
2022-09-16T20:54:09.724Z,64.99
2022-09-16T20:56:39.356Z,66.00
2022-09-16T20:59:08.537Z,65.89
2022-09-16T21:01:37.395Z,67.51
2022-09-16T21:04:06.839Z,66.56
2022-09-16T21:06:36.011Z,66.00
2022-09-16T21:09:06.411Z,67.43
2022-09-16T21:11:34.252Z,66.38
2022-09-16T21:14:04.109Z,68.10
2022-09-16T21:16:34.186Z,67.94
2022-09-16T21:19:04.011Z,68.08
2022-09-16T21:21:32.027Z,69.08
2022-09-16T21:24:01.324Z,70.27
2022-09-16T21:26:31.196Z,72.07
2022-09-16T21:29:00.629Z,70.89
2022-09-16T21:31:29.810Z,70.73
2022-09-16T21:33:58.133Z,70.13
2022-09-16T21:36:27.918Z,71.52
2022-09-16T21:38:55.433Z,72.42
2022-09-16T21:41:24.030Z,70.30
2022-09-16T21:43:55.707Z,71.19
2022-09-16T21:46:27.408Z,72.62
2022-09-16T21:49:00.159Z,72.50
2022-09-16T21:51:35.206Z,72.89
2022-09-16T21:54:04.429Z,71.41
2022-09-16T21:56:32.318Z,71.55
2022-09-16T21:59:00.227Z,73.27
2022-09-16T22:01:30.260Z,72.30
2022-09-16T22:04:03.282Z,72.91
2022-09-16T22:06:31.972Z,73.12
2022-09-16T22:09:01.576Z,71.22
2022-09-16T22:11:31.502Z,71.15
2022-09-16T22:14:02.496Z,70.92
2022-09-16T22:16:33.010Z,71.50
2022-09-16T22:19:09.210Z,71.97
2022-09-16T22:21:40.344Z,72.15
2022-09-16T22:24:07.864Z,71.79
2022-09-16T22:26:35.780Z,71.13
2022-09-16T22:29:03.745Z,73.00
2022-09-16T22:31:32.797Z,72.66
2022-09-16T22:34:01.640Z,72.86
2022-09-16T22:36:33.718Z,73.93
2022-09-16T22:39:05.315Z,76.82
2022-09-16T22:41:33.634Z,73.93
2022-09-16T22:44:01.230Z,74.12
2022-09-16T22:46:31.216Z,72.65
2022-09-16T22:48:59.606Z,72.13
2022-09-16T22:51:27.619Z,73.08
2022-09-16T22:53:55.173Z,74.14
2022-09-16T22:56:25.536Z,74.77
2022-09-16T22:58:54.188Z,75.25
2022-09-16T23:01:26.934Z,74.58
2022-09-16T23:03:57.383Z,73.59
2022-09-16T23:06:26.239Z,72.36
2022-09-16T23:08:53.795Z,71.90
2022-09-16T23:11:24.160Z,72.19
2022-09-16T23:13:54.822Z,73.17
2022-09-16T23:16:26.985Z,72.93
2022-09-16T23:18:56.526Z,71.22
2022-09-16T23:21:24.941Z,71.41
2022-09-16T23:23:54.487Z,74.31
2022-09-16T23:26:27.685Z,72.27
2022-09-16T23:28:56.843Z,71.83
2022-09-16T23:31:27.349Z,72.61
2022-09-16T23:33:55.449Z,72.16
2022-09-16T23:36:23.745Z,74.35
2022-09-16T23:38:51.362Z,72.94
2022-09-16T23:41:21.639Z,72.98
2022-09-16T23:43:50.053Z,73.83
2022-09-16T23:46:19.746Z,74.82
2022-09-16T23:48:48.186Z,74.05
2022-09-16T23:51:15.608Z,72.73
2022-09-16T23:53:42.949Z,74.16
2022-09-16T23:56:12.824Z,73.18
2022-09-16T23:58:42.085Z,74.54
